Shin Mei Maru — JG5617 — position and weather

sailwx.info

Track history (hours):
 
Tides and Currents Weather Stations Pressure Air Temp Water Temp Dewpoint Dewpoint Depression Visibility Wind Speed Wind Dir Waves Ship Positions

Shin Mei Maru

Last reported at 2014-Dec-18 12:29 UTC. Time now 2014-Dec-22 16:19 UTC.
Position N 33°54' E 134°59'.

Length 160 m; draft 6.8 m.

Type: Cargo ship. MMSI: 431100922.

Date/timePositionNaut miles runAvg speedWind from/ knotsBaromVisibWave heightAir tempDewpointWater temp
2014-Dec-18 12:29N 33°54' E 134°59'1718.6
2014-Dec-18 11:33N 34°11' E 134°59'1717.3
2014-Dec-18 10:33N 34°27' E 135°08'1716.5
2014-Dec-18 09:33N 34°37' E 135°24'0 0.1
2014-Dec-18 03:18N 34°37' E 135°25'912.5
2014-Dec-18 02:33N 34°32' E 135°15'1817.8
2014-Dec-18 01:33N 34°19' E 135°00'1717.4
2014-Dec-18 00:34N 34°02' E 134°60'24012.5
2014-Dec-17 05:23N 35°05' E 139°40'1213.9
2014-Dec-17 04:32N 35°16' E 139°46'1312.8
2014-Dec-17 03:33N 35°28' E 139°49'10 2.0
2014-Dec-16 22:29N 35°38' E 139°46'1212.9
2014-Dec-16 21:33N 35°26' E 139°48'1312.7
2014-Dec-16 20:33N 35°13' E 139°47'26 8.0
2014-Dec-16 17:21N 34°60' E 140°13'  
2014-Dec-11 11:32N 33°57' E 134°58'1818.7
2014-Dec-11 10:33N 34°16' E 134°59'1717.4
2014-Dec-11 09:33N 34°29' E 135°11'1312.9
2014-Dec-11 08:32N 34°37' E 135°25'0 0.0
2014-Dec-11 06:32N 34°37' E 135°25'0 0.0
2014-Dec-11 05:32N 34°37' E 135°25'0 0.0
2014-Dec-11 04:32N 34°37' E 135°25'0 0.0
2014-Dec-11 03:32N 34°37' E 135°25'1111.2
2014-Dec-11 02:33N 34°31' E 135°13'1918.5
2014-Dec-11 01:33N 34°17' E 134°59'1818.0
2014-Dec-11 00:32N 33°59' E 134°59'23815.5
2014-Dec-10 09:14N 35°03' E 139°37'1218.0
2014-Dec-10 08:33N 35°13' E 139°46'1312.6
2014-Dec-10 07:33N 35°25' E 139°43'1311.9
2014-Dec-10 06:29N 35°38' E 139°46'0 0.0
2014-Dec-10 00:18N 35°38' E 139°46'2 2.8
2014-Dec-09 23:33N 35°36' E 139°47'1313.2
2014-Dec-09 22:33N 35°23' E 139°46'1312.4
2014-Dec-09 21:33N 35°10' E 139°47'  
Track history (hours):
 
Tides and Currents Weather Stations Pressure Air Temp Water Temp Dewpoint Dewpoint Depression Visibility Wind Speed Wind Dir Waves Ship Positions

Shin Mei Maru

Last reported at 2014-Dec-18 12:29 UTC. Time now 2014-Dec-22 16:19 UTC.
Position N 33°54' E 134°59'.

Length 160 m; draft 6.8 m.

Type: Cargo ship. MMSI: 431100922.

Date/timePositionNaut miles runAvg speedWind from/ knotsBaromVisibWave heightAir tempDewpointWater temp
2014-Dec-18 12:29N 33°54' E 134°59'1718.6
2014-Dec-18 11:33N 34°11' E 134°59'1717.3
2014-Dec-18 10:33N 34°27' E 135°08'1716.5
2014-Dec-18 09:33N 34°37' E 135°24'0 0.1
2014-Dec-18 03:18N 34°37' E 135°25'912.5
2014-Dec-18 02:33N 34°32' E 135°15'1817.8
2014-Dec-18 01:33N 34°19' E 135°00'1717.4
2014-Dec-18 00:34N 34°02' E 134°60'24012.5
2014-Dec-17 05:23N 35°05' E 139°40'1213.9
2014-Dec-17 04:32N 35°16' E 139°46'1312.8
2014-Dec-17 03:33N 35°28' E 139°49'10 2.0
2014-Dec-16 22:29N 35°38' E 139°46'1212.9
2014-Dec-16 21:33N 35°26' E 139°48'1312.7
2014-Dec-16 20:33N 35°13' E 139°47'26 8.0
2014-Dec-16 17:21N 34°60' E 140°13'  
2014-Dec-11 11:32N 33°57' E 134°58'1818.7
2014-Dec-11 10:33N 34°16' E 134°59'1717.4
2014-Dec-11 09:33N 34°29' E 135°11'1312.9
2014-Dec-11 08:32N 34°37' E 135°25'0 0.0
2014-Dec-11 06:32N 34°37' E 135°25'0 0.0
2014-Dec-11 05:32N 34°37' E 135°25'0 0.0
2014-Dec-11 04:32N 34°37' E 135°25'0 0.0
2014-Dec-11 03:32N 34°37' E 135°25'1111.2
2014-Dec-11 02:33N 34°31' E 135°13'1918.5
2014-Dec-11 01:33N 34°17' E 134°59'1818.0
2014-Dec-11 00:32N 33°59' E 134°59'23815.5
2014-Dec-10 09:14N 35°03' E 139°37'1218.0
2014-Dec-10 08:33N 35°13' E 139°46'1312.6
2014-Dec-10 07:33N 35°25' E 139°43'1311.9
2014-Dec-10 06:29N 35°38' E 139°46'0 0.0
2014-Dec-10 00:18N 35°38' E 139°46'2 2.8
2014-Dec-09 23:33N 35°36' E 139°47'1313.2
2014-Dec-09 22:33N 35°23' E 139°46'1312.4
2014-Dec-09 21:33N 35°10' E 139°47'  

Dump ship's entire track history